sensor_id;sensor_type;location;lat;lon;timestamp;temperature;humidity
24436;DHT22;12616;52.470;13.436;2023-05-07T00:01:56;9.00;1.00
24436;DHT22;12616;52.470;13.436;2023-05-07T00:12:40;9.00;1.00
24436;DHT22;12616;52.470;13.436;2023-05-07T00:17:59;9.00;1.00
24436;DHT22;12616;52.470;13.436;2023-05-07T00:20:35;9.00;99.90
24436;DHT22;12616;52.470;13.436;2023-05-07T00:23:25;9.00;99.90
24436;DHT22;12616;52.470;13.436;2023-05-07T00:26:11;9.00;99.90
24436;DHT22;12616;52.470;13.436;2023-05-07T00:29:08;9.10;1.00
24436;DHT22;12616;52.470;13.436;2023-05-07T00:32:00;9.20;99.90
24436;DHT22;12616;52.470;13.436;2023-05-07T00:35:00;9.10;99.90
24436;DHT22;12616;52.470;13.436;2023-05-07T00:37:59;9.10;99.90
24436;DHT22;12616;52.470;13.436;2023-05-07T00:40:39;9.00;99.90
24436;DHT22;12616;52.470;13.436;2023-05-07T00:43:21;9.10;99.90
24436;DHT22;12616;52.470;13.436;2023-05-07T00:45:48;9.10;99.90
24436;DHT22;12616;52.470;13.436;2023-05-07T00:48:15;9.10;99.90
24436;DHT22;12616;52.470;13.436;2023-05-07T00:50:42;9.00;99.90
24436;DHT22;12616;52.470;13.436;2023-05-07T00:53:09;9.10;1.00
24436;DHT22;12616;52.470;13.436;2023-05-07T00:55:37;9.00;99.90
24436;DHT22;12616;52.470;13.436;2023-05-07T00:58:04;9.00;99.90
24436;DHT22;12616;52.470;13.436;2023-05-07T01:00:32;9.00;99.90
24436;DHT22;12616;52.470;13.436;2023-05-07T01:02:59;9.00;99.90
24436;DHT22;12616;52.470;13.436;2023-05-07T01:05:27;9.00;99.90
24436;DHT22;12616;52.470;13.436;2023-05-07T01:07:55;9.00;99.90
24436;DHT22;12616;52.470;13.436;2023-05-07T01:10:24;8.90;99.90
24436;DHT22;12616;52.470;13.436;2023-05-07T01:12:51;8.80;1.00
24436;DHT22;12616;52.470;13.436;2023-05-07T01:15:18;9.00;99.90
24436;DHT22;12616;52.470;13.436;2023-05-07T01:17:47;8.90;99.90
24436;DHT22;12616;52.470;13.436;2023-05-07T01:20:13;8.80;99.90
24436;DHT22;12616;52.470;13.436;2023-05-07T01:22:43;8.90;99.90
24436;DHT22;12616;52.470;13.436;2023-05-07T01:25:10;9.00;99.90
24436;DHT22;12616;52.470;13.436;2023-05-07T01:27:37;8.90;99.90
24436;DHT22;12616;52.470;13.436;2023-05-07T01:30:05;8.90;99.90
24436;DHT22;12616;52.470;13.436;2023-05-07T01:32:35;8.90;99.90
24436;DHT22;12616;52.470;13.436;2023-05-07T01:35:04;8.90;99.90
24436;DHT22;12616;52.470;13.436;2023-05-07T01:37:32;8.90;99.90
24436;DHT22;12616;52.470;13.436;2023-05-07T01:40:01;8.90;99.90
24436;DHT22;12616;52.470;13.436;2023-05-07T01:42:29;8.90;99.90
24436;DHT22;12616;52.470;13.436;2023-05-07T01:44:56;8.90;99.90
24436;DHT22;12616;52.470;13.436;2023-05-07T01:47:23;8.90;99.90
24436;DHT22;12616;52.470;13.436;2023-05-07T01:49:50;8.90;99.90
24436;DHT22;12616;52.470;13.436;2023-05-07T01:52:17;8.90;99.90
24436;DHT22;12616;52.470;13.436;2023-05-07T01:54:44;9.10;99.90
24436;DHT22;12616;52.470;13.436;2023-05-07T01:57:12;8.90;99.90
24436;DHT22;12616;52.470;13.436;2023-05-07T01:59:39;9.00;99.90
24436;DHT22;12616;52.470;13.436;2023-05-07T02:02:06;9.00;99.90
24436;DHT22;12616;52.470;13.436;2023-05-07T02:04:34;8.90;99.90
24436;DHT22;12616;52.470;13.436;2023-05-07T02:07:02;8.90;99.90
24436;DHT22;12616;52.470;13.436;2023-05-07T02:09:28;8.90;99.90
24436;DHT22;12616;52.470;13.436;2023-05-07T02:11:55;8.90;99.90
24436;DHT22;12616;52.470;13.436;2023-05-07T02:14:23;9.00;99.90
24436;DHT22;12616;52.470;13.436;2023-05-07T02:16:51;8.90;99.90
24436;DHT22;12616;52.470;13.436;2023-05-07T02:19:18;8.90;99.90
24436;DHT22;12616;52.470;13.436;2023-05-07T02:21:46;8.90;99.90
24436;DHT22;12616;52.470;13.436;2023-05-07T02:24:13;9.00;99.90
24436;DHT22;12616;52.470;13.436;2023-05-07T02:26:40;8.90;99.90
24436;DHT22;12616;52.470;13.436;2023-05-07T02:29:07;8.80;99.90
24436;DHT22;12616;52.470;13.436;2023-05-07T02:31:35;8.90;99.90
24436;DHT22;12616;52.470;13.436;2023-05-07T02:34:02;8.90;99.90
24436;DHT22;12616;52.470;13.436;2023-05-07T02:36:29;8.90;99.90
24436;DHT22;12616;52.470;13.436;2023-05-07T02:38:56;8.90;99.90
24436;DHT22;12616;52.470;13.436;2023-05-07T02:41:23;8.90;99.90
24436;DHT22;12616;52.470;13.436;2023-05-07T02:43:50;8.90;99.90
24436;DHT22;12616;52.470;13.436;2023-05-07T02:46:16;8.90;99.90
24436;DHT22;12616;52.470;13.436;2023-05-07T02:48:45;8.90;99.90
24436;DHT22;12616;52.470;13.436;2023-05-07T02:51:11;9.00;99.90
24436;DHT22;12616;52.470;13.436;2023-05-07T02:53:39;9.20;99.90
24436;DHT22;12616;52.470;13.436;2023-05-07T02:56:06;9.00;99.90
24436;DHT22;12616;52.470;13.436;2023-05-07T02:58:33;9.00;99.90
24436;DHT22;12616;52.470;13.436;2023-05-07T03:01:02;9.00;99.90
24436;DHT22;12616;52.470;13.436;2023-05-07T03:03:29;9.00;63.60
24436;DHT22;12616;52.470;13.436;2023-05-07T03:05:57;9.00;90.30
24436;DHT22;12616;52.470;13.436;2023-05-07T03:08:24;9.00;95.50
24436;DHT22;12616;52.470;13.436;2023-05-07T03:10:51;9.10;99.90
24436;DHT22;12616;52.470;13.436;2023-05-07T03:13:18;8.90;91.50
24436;DHT22;12616;52.470;13.436;2023-05-07T03:15:45;9.00;16.20
24436;DHT22;12616;52.470;13.436;2023-05-07T03:18:12;8.90;1.00
24436;DHT22;12616;52.470;13.436;2023-05-07T03:20:39;8.90;1.00
24436;DHT22;12616;52.470;13.436;2023-05-07T03:23:07;8.90;25.50
24436;DHT22;12616;52.470;13.436;2023-05-07T03:25:34;8.90;1.00
24436;DHT22;12616;52.470;13.436;2023-05-07T03:28:01;9.20;99.90
24436;DHT22;12616;52.470;13.436;2023-05-07T03:30:28;8.90;1.00
24436;DHT22;12616;52.470;13.436;2023-05-07T03:32:55;8.90;33.40
24436;DHT22;12616;52.470;13.436;2023-05-07T03:35:21;8.90;1.00
24436;DHT22;12616;52.470;13.436;2023-05-07T03:37:48;8.90;1.00
24436;DHT22;12616;52.470;13.436;2023-05-07T03:40:17;8.90;1.00
24436;DHT22;12616;52.470;13.436;2023-05-07T03:42:44;8.70;5.10
24436;DHT22;12616;52.470;13.436;2023-05-07T03:45:11;8.80;1.00
24436;DHT22;12616;52.470;13.436;2023-05-07T03:47:38;8.90;1.00
24436;DHT22;12616;52.470;13.436;2023-05-07T03:50:05;8.90;1.00
24436;DHT22;12616;52.470;13.436;2023-05-07T03:52:32;8.90;1.00
24436;DHT22;12616;52.470;13.436;2023-05-07T03:54:59;9.00;43.70
24436;DHT22;12616;52.470;13.436;2023-05-07T03:57:27;8.90;1.00
24436;DHT22;12616;52.470;13.436;2023-05-07T03:59:54;8.90;1.00
24436;DHT22;12616;52.470;13.436;2023-05-07T04:02:21;8.80;1.00
24436;DHT22;12616;52.470;13.436;2023-05-07T04:04:48;8.70;38.60
24436;DHT22;12616;52.470;13.436;2023-05-07T04:07:15;8.80;1.00
24436;DHT22;12616;52.470;13.436;2023-05-07T04:09:42;8.90;99.90
24436;DHT22;12616;52.470;13.436;2023-05-07T04:12:09;8.80;1.00
24436;DHT22;12616;52.470;13.436;2023-05-07T04:14:37;8.90;99.90
24436;DHT22;12616;52.470;13.436;2023-05-07T04:17:04;8.80;1.00
24436;DHT22;12616;52.470;13.436;2023-05-07T04:19:34;8.80;1.00
24436;DHT22;12616;52.470;13.436;2023-05-07T04:22:01;8.60;97.20
24436;DHT22;12616;52.470;13.436;2023-05-07T04:24:30;8.70;1.00
24436;DHT22;12616;52.470;13.436;2023-05-07T04:26:57;8.70;1.00
24436;DHT22;12616;52.470;13.436;2023-05-07T04:29:24;9.00;74.40
24436;DHT22;12616;52.470;13.436;2023-05-07T04:31:52;8.80;1.00
24436;DHT22;12616;52.470;13.436;2023-05-07T04:34:21;8.80;1.00
24436;DHT22;12616;52.470;13.436;2023-05-07T04:36:48;8.80;1.00
24436;DHT22;12616;52.470;13.436;2023-05-07T04:39:15;8.80;1.00
24436;DHT22;12616;52.470;13.436;2023-05-07T04:41:41;8.90;1.00
24436;DHT22;12616;52.470;13.436;2023-05-07T04:44:08;8.90;1.00
24436;DHT22;12616;52.470;13.436;2023-05-07T04:46:36;8.70;1.00
24436;DHT22;12616;52.470;13.436;2023-05-07T04:49:04;8.90;1.00
24436;DHT22;12616;52.470;13.436;2023-05-07T04:51:31;9.00;1.00
24436;DHT22;12616;52.470;13.436;2023-05-07T04:54:01;8.90;1.00
24436;DHT22;12616;52.470;13.436;2023-05-07T04:56:28;8.90;1.00
24436;DHT22;12616;52.470;13.436;2023-05-07T04:58:55;8.90;1.00
24436;DHT22;12616;52.470;13.436;2023-05-07T05:01:22;8.90;1.00
24436;DHT22;12616;52.470;13.436;2023-05-07T05:03:49;8.70;1.00
24436;DHT22;12616;52.470;13.436;2023-05-07T05:06:17;8.90;99.90
24436;DHT22;12616;52.470;13.436;2023-05-07T05:08:44;9.00;99.90
24436;DHT22;12616;52.470;13.436;2023-05-07T05:11:10;9.00;99.90
24436;DHT22;12616;52.470;13.436;2023-05-07T05:13:37;9.00;99.90
24436;DHT22;12616;52.470;13.436;2023-05-07T05:16:05;9.00;99.90
24436;DHT22;12616;52.470;13.436;2023-05-07T05:18:33;9.10;99.90
24436;DHT22;12616;52.470;13.436;2023-05-07T05:21:00;9.00;99.90
24436;DHT22;12616;52.470;13.436;2023-05-07T05:23:28;9.00;99.90
24436;DHT22;12616;52.470;13.436;2023-05-07T05:25:56;9.00;99.90
24436;DHT22;12616;52.470;13.436;2023-05-07T05:28:23;9.00;99.90
24436;DHT22;12616;52.470;13.436;2023-05-07T05:30:50;9.00;99.90
24436;DHT22;12616;52.470;13.436;2023-05-07T05:33:17;9.10;99.90
24436;DHT22;12616;52.470;13.436;2023-05-07T05:35:44;9.20;99.90
24436;DHT22;12616;52.470;13.436;2023-05-07T05:38:11;9.10;99.90
24436;DHT22;12616;52.470;13.436;2023-05-07T05:40:41;9.00;99.90
24436;DHT22;12616;52.470;13.436;2023-05-07T05:43:08;9.10;99.90
24436;DHT22;12616;52.470;13.436;2023-05-07T05:45:35;9.20;99.90
24436;DHT22;12616;52.470;13.436;2023-05-07T05:48:02;9.00;99.90
24436;DHT22;12616;52.470;13.436;2023-05-07T05:50:29;9.10;99.90
24436;DHT22;12616;52.470;13.436;2023-05-07T05:52:56;9.30;99.90
24436;DHT22;12616;52.470;13.436;2023-05-07T05:55:23;9.20;93.90
24436;DHT22;12616;52.470;13.436;2023-05-07T05:57:51;9.20;47.90
24436;DHT22;12616;52.470;13.436;2023-05-07T06:00:19;9.10;45.10
24436;DHT22;12616;52.470;13.436;2023-05-07T06:02:48;9.60;99.90
24436;DHT22;12616;52.470;13.436;2023-05-07T06:05:15;9.30;1.00
24436;DHT22;12616;52.470;13.436;2023-05-07T06:07:42;9.20;1.00
24436;DHT22;12616;52.470;13.436;2023-05-07T06:10:09;9.20;1.00
24436;DHT22;12616;52.470;13.436;2023-05-07T06:12:35;9.30;55.50
24436;DHT22;12616;52.470;13.436;2023-05-07T06:15:04;9.30;1.00
24436;DHT22;12616;52.470;13.436;2023-05-07T06:17:31;9.60;1.00
24436;DHT22;12616;52.470;13.436;2023-05-07T06:19:58;9.60;1.00
24436;DHT22;12616;52.470;13.436;2023-05-07T06:22:25;9.50;1.00
24436;DHT22;12616;52.470;13.436;2023-05-07T06:24:52;9.50;1.00
24436;DHT22;12616;52.470;13.436;2023-05-07T06:27:19;9.80;1.00
24436;DHT22;12616;52.470;13.436;2023-05-07T06:29:47;9.70;1.00
24436;DHT22;12616;52.470;13.436;2023-05-07T06:32:16;9.70;1.00
24436;DHT22;12616;52.470;13.436;2023-05-07T06:34:43;9.70;1.00
24436;DHT22;12616;52.470;13.436;2023-05-07T06:37:10;9.70;1.00
24436;DHT22;12616;52.470;13.436;2023-05-07T06:39:37;9.70;1.00
24436;DHT22;12616;52.470;13.436;2023-05-07T06:42:04;9.70;1.00
24436;DHT22;12616;52.470;13.436;2023-05-07T06:49:27;10.00;1.00
24436;DHT22;12616;52.470;13.436;2023-05-07T06:51:54;10.80;1.00
24436;DHT22;12616;52.470;13.436;2023-05-07T06:54:21;9.90;99.90
24436;DHT22;12616;52.470;13.436;2023-05-07T06:56:48;10.00;1.00
24436;DHT22;12616;52.470;13.436;2023-05-07T06:59:15;10.10;99.90
24436;DHT22;12616;52.470;13.436;2023-05-07T07:01:42;10.10;99.90
24436;DHT22;12616;52.470;13.436;2023-05-07T07:06:37;10.20;99.90
24436;DHT22;12616;52.470;13.436;2023-05-07T07:09:04;11.50;82.20
24436;DHT22;12616;52.470;13.436;2023-05-07T07:11:31;10.00;99.90
24436;DHT22;12616;52.470;13.436;2023-05-07T07:16:25;10.50;99.90
24436;DHT22;12616;52.470;13.436;2023-05-07T07:21:19;10.70;1.00
24436;DHT22;12616;52.470;13.436;2023-05-07T07:23:47;10.60;1.00
24436;DHT22;12616;52.470;13.436;2023-05-07T07:26:14;10.60;1.00
24436;DHT22;12616;52.470;13.436;2023-05-07T07:28:45;10.70;1.00
24436;DHT22;12616;52.470;13.436;2023-05-07T07:33:39;10.90;73.70
24436;DHT22;12616;52.470;13.436;2023-05-07T07:36:06;11.10;99.90
24436;DHT22;12616;52.470;13.436;2023-05-07T07:38:33;11.30;99.90
24436;DHT22;12616;52.470;13.436;2023-05-07T07:41:02;11.30;99.90
24436;DHT22;12616;52.470;13.436;2023-05-07T07:45:56;11.60;99.90
24436;DHT22;12616;52.470;13.436;2023-05-07T07:48:23;11.80;99.90
24436;DHT22;12616;52.470;13.436;2023-05-07T07:53:17;11.80;99.90
24436;DHT22;12616;52.470;13.436;2023-05-07T07:55:44;11.90;1.00
24436;DHT22;12616;52.470;13.436;2023-05-07T07:58:13;12.10;1.00
24436;DHT22;12616;52.470;13.436;2023-05-07T08:03:09;12.00;99.90
24436;DHT22;12616;52.470;13.436;2023-05-07T08:05:36;12.30;11.30
24436;DHT22;12616;52.470;13.436;2023-05-07T08:08:04;11.70;99.90
24436;DHT22;12616;52.470;13.436;2023-05-07T08:10:31;11.60;99.90
24436;DHT22;12616;52.470;13.436;2023-05-07T08:13:00;11.50;1.00
24436;DHT22;12616;52.470;13.436;2023-05-07T08:15:28;11.90;1.00
24436;DHT22;12616;52.470;13.436;2023-05-07T08:17:55;11.50;34.10
24436;DHT22;12616;52.470;13.436;2023-05-07T08:22:51;11.90;11.40
24436;DHT22;12616;52.470;13.436;2023-05-07T08:27:47;12.10;1.00
24436;DHT22;12616;52.470;13.436;2023-05-07T08:30:15;12.10;14.50
24436;DHT22;12616;52.470;13.436;2023-05-07T08:32:43;11.90;1.00
24436;DHT22;12616;52.470;13.436;2023-05-07T08:35:10;11.80;99.90
24436;DHT22;12616;52.470;13.436;2023-05-07T08:40:13;12.10;1.00
24436;DHT22;12616;52.470;13.436;2023-05-07T08:45:10;12.30;1.00
24436;DHT22;12616;52.470;13.436;2023-05-07T08:47:43;12.30;1.00
24436;DHT22;12616;52.470;13.436;2023-05-07T08:52:56;12.50;1.00
24436;DHT22;12616;52.470;13.436;2023-05-07T08:55:23;13.00;1.00
24436;DHT22;12616;52.470;13.436;2023-05-07T09:00:32;13.00;1.00
24436;DHT22;12616;52.470;13.436;2023-05-07T09:03:01;12.80;1.00
24436;DHT22;12616;52.470;13.436;2023-05-07T09:05:28;12.60;1.00
24436;DHT22;12616;52.470;13.436;2023-05-07T09:07:55;12.60;1.00
24436;DHT22;12616;52.470;13.436;2023-05-07T09:10:26;12.90;1.00
24436;DHT22;12616;52.470;13.436;2023-05-07T09:12:52;12.70;1.00
24436;DHT22;12616;52.470;13.436;2023-05-07T09:15:20;12.90;1.00
24436;DHT22;12616;52.470;13.436;2023-05-07T09:20:16;13.00;1.00
24436;DHT22;12616;52.470;13.436;2023-05-07T09:22:43;14.10;1.00
24436;DHT22;12616;52.470;13.436;2023-05-07T09:25:10;12.90;1.00
24436;DHT22;12616;52.470;13.436;2023-05-07T09:27:37;13.00;1.00
24436;DHT22;12616;52.470;13.436;2023-05-07T09:30:06;13.00;1.00
24436;DHT22;12616;52.470;13.436;2023-05-07T09:32:35;13.20;1.00
24436;DHT22;12616;52.470;13.436;2023-05-07T09:35:03;13.40;1.00
24436;DHT22;12616;52.470;13.436;2023-05-07T09:37:32;13.30;1.00
24436;DHT22;12616;52.470;13.436;2023-05-07T09:39:59;13.50;1.00
24436;DHT22;12616;52.470;13.436;2023-05-07T09:42:26;13.30;1.00
24436;DHT22;12616;52.470;13.436;2023-05-07T09:44:53;13.30;1.00
24436;DHT22;12616;52.470;13.436;2023-05-07T09:47:24;13.30;1.00
24436;DHT22;12616;52.470;13.436;2023-05-07T09:49:55;13.20;1.00
24436;DHT22;12616;52.470;13.436;2023-05-07T09:52:23;13.40;1.00
24436;DHT22;12616;52.470;13.436;2023-05-07T09:54:52;13.20;1.00
24436;DHT22;12616;52.470;13.436;2023-05-07T09:57:20;13.20;1.00
24436;DHT22;12616;52.470;13.436;2023-05-07T09:59:49;13.20;1.00
24436;DHT22;12616;52.470;13.436;2023-05-07T10:02:19;13.70;1.00
24436;DHT22;12616;52.470;13.436;2023-05-07T10:04:48;13.70;1.00
24436;DHT22;12616;52.470;13.436;2023-05-07T10:07:16;13.90;1.00
24436;DHT22;12616;52.470;13.436;2023-05-07T10:09:43;13.80;1.00
24436;DHT22;12616;52.470;13.436;2023-05-07T10:12:13;14.50;1.00
24436;DHT22;12616;52.470;13.436;2023-05-07T10:14:40;14.00;1.00
24436;DHT22;12616;52.470;13.436;2023-05-07T10:17:08;14.20;1.00
24436;DHT22;12616;52.470;13.436;2023-05-07T10:19:37;13.90;1.00
24436;DHT22;12616;52.470;13.436;2023-05-07T10:22:06;13.50;1.00
24436;DHT22;12616;52.470;13.436;2023-05-07T10:24:34;13.50;1.00
24436;DHT22;12616;52.470;13.436;2023-05-07T10:27:04;13.70;1.00
24436;DHT22;12616;52.470;13.436;2023-05-07T10:29:39;13.70;1.00
24436;DHT22;12616;52.470;13.436;2023-05-07T10:32:23;13.40;1.00
24436;DHT22;12616;52.470;13.436;2023-05-07T10:34:55;13.60;99.90
24436;DHT22;12616;52.470;13.436;2023-05-07T10:37:24;13.70;99.90
24436;DHT22;12616;52.470;13.436;2023-05-07T10:39:51;13.70;1.00
24436;DHT22;12616;52.470;13.436;2023-05-07T10:44:47;13.60;99.90
24436;DHT22;12616;52.470;13.436;2023-05-07T10:47:21;13.70;1.00
24436;DHT22;12616;52.470;13.436;2023-05-07T10:50:22;13.70;1.00
24436;DHT22;12616;52.470;13.436;2023-05-07T10:53:21;13.50;1.00
24436;DHT22;12616;52.470;13.436;2023-05-07T10:56:23;14.10;1.00
24436;DHT22;12616;52.470;13.436;2023-05-07T10:58:38;14.10;1.00
24436;DHT22;12616;52.470;13.436;2023-05-07T11:01:07;13.90;1.00
24436;DHT22;12616;52.470;13.436;2023-05-07T11:03:33;14.00;1.00
24436;DHT22;12616;52.470;13.436;2023-05-07T11:06:11;14.00;1.00
24436;DHT22;12616;52.470;13.436;2023-05-07T11:08:57;14.00;1.00
24436;DHT22;12616;52.470;13.436;2023-05-07T11:11:45;14.30;1.00
24436;DHT22;12616;52.470;13.436;2023-05-07T11:14:13;15.10;1.00
24436;DHT22;12616;52.470;13.436;2023-05-07T11:16:42;14.30;99.90
24436;DHT22;12616;52.470;13.436;2023-05-07T11:19:09;14.30;99.90
24436;DHT22;12616;52.470;13.436;2023-05-07T11:21:37;14.30;99.90
24436;DHT22;12616;52.470;13.436;2023-05-07T11:24:06;14.30;99.90
24436;DHT22;12616;52.470;13.436;2023-05-07T11:26:43;14.30;99.90
24436;DHT22;12616;52.470;13.436;2023-05-07T11:29:13;14.20;1.00
24436;DHT22;12616;52.470;13.436;2023-05-07T11:31:42;14.30;99.90
24436;DHT22;12616;52.470;13.436;2023-05-07T11:34:09;14.60;1.00
24436;DHT22;12616;52.470;13.436;2023-05-07T11:36:42;14.80;99.90
24436;DHT22;12616;52.470;13.436;2023-05-07T11:39:29;14.70;99.90
24436;DHT22;12616;52.470;13.436;2023-05-07T11:41:58;14.90;1.00
24436;DHT22;12616;52.470;13.436;2023-05-07T11:44:25;15.10;99.90
24436;DHT22;12616;52.470;13.436;2023-05-07T11:47:07;15.00;99.90
24436;DHT22;12616;52.470;13.436;2023-05-07T11:49:34;14.90;99.90
24436;DHT22;12616;52.470;13.436;2023-05-07T11:52:01;14.00;99.90
24436;DHT22;12616;52.470;13.436;2023-05-07T11:54:35;14.70;99.90
24436;DHT22;12616;52.470;13.436;2023-05-07T11:59:38;14.60;99.90
24436;DHT22;12616;52.470;13.436;2023-05-07T12:02:08;14.50;99.90
24436;DHT22;12616;52.470;13.436;2023-05-07T12:04:35;14.50;99.90
24436;DHT22;12616;52.470;13.436;2023-05-07T12:11:56;14.70;99.90
24436;DHT22;12616;52.470;13.436;2023-05-07T12:14:27;14.70;99.90
24436;DHT22;12616;52.470;13.436;2023-05-07T12:16:56;14.80;99.90
24436;DHT22;12616;52.470;13.436;2023-05-07T12:19:24;14.60;99.90
24436;DHT22;12616;52.470;13.436;2023-05-07T12:21:51;14.80;1.00
24436;DHT22;12616;52.470;13.436;2023-05-07T12:24:18;14.90;99.90
24436;DHT22;12616;52.470;13.436;2023-05-07T12:26:46;14.90;99.90
24436;DHT22;12616;52.470;13.436;2023-05-07T12:31:41;15.30;99.90
24436;DHT22;12616;52.470;13.436;2023-05-07T12:34:08;15.40;99.90
24436;DHT22;12616;52.470;13.436;2023-05-07T12:36:39;15.40;99.90
24436;DHT22;12616;52.470;13.436;2023-05-07T12:39:06;15.70;1.00
24436;DHT22;12616;52.470;13.436;2023-05-07T12:41:36;15.70;1.00
24436;DHT22;12616;52.470;13.436;2023-05-07T12:46:46;15.40;99.90
24436;DHT22;12616;52.470;13.436;2023-05-07T12:51:42;15.80;1.00
24436;DHT22;12616;52.470;13.436;2023-05-07T12:54:09;15.80;99.90
24436;DHT22;12616;52.470;13.436;2023-05-07T12:56:36;15.90;99.90
24436;DHT22;12616;52.470;13.436;2023-05-07T12:59:03;16.00;99.90
24436;DHT22;12616;52.470;13.436;2023-05-07T13:01:30;15.80;99.90
24436;DHT22;12616;52.470;13.436;2023-05-07T13:04:01;15.70;99.90
24436;DHT22;12616;52.470;13.436;2023-05-07T13:06:30;15.70;1.00
24436;DHT22;12616;52.470;13.436;2023-05-07T13:08:58;15.70;99.90
24436;DHT22;12616;52.470;13.436;2023-05-07T13:11:25;15.60;1.00
24436;DHT22;12616;52.470;13.436;2023-05-07T13:13:52;15.40;1.00
24436;DHT22;12616;52.470;13.436;2023-05-07T13:16:29;15.00;1.00
24436;DHT22;12616;52.470;13.436;2023-05-07T13:21:23;15.30;99.90
24436;DHT22;12616;52.470;13.436;2023-05-07T13:23:50;15.10;1.00
24436;DHT22;12616;52.470;13.436;2023-05-07T13:26:19;15.10;99.90
24436;DHT22;12616;52.470;13.436;2023-05-07T13:28:46;15.30;99.90
24436;DHT22;12616;52.470;13.436;2023-05-07T13:31:14;15.40;99.90
24436;DHT22;12616;52.470;13.436;2023-05-07T13:33:41;15.40;1.00
24436;DHT22;12616;52.470;13.436;2023-05-07T13:36:08;15.50;99.90
24436;DHT22;12616;52.470;13.436;2023-05-07T13:38:35;15.40;99.90
24436;DHT22;12616;52.470;13.436;2023-05-07T13:41:02;15.30;99.90
24436;DHT22;12616;52.470;13.436;2023-05-07T13:43:32;15.30;99.90
24436;DHT22;12616;52.470;13.436;2023-05-07T13:46:00;15.50;99.90
24436;DHT22;12616;52.470;13.436;2023-05-07T13:50:55;15.40;99.90
24436;DHT22;12616;52.470;13.436;2023-05-07T13:53:22;15.40;1.00
24436;DHT22;12616;52.470;13.436;2023-05-07T13:55:48;15.20;99.90
24436;DHT22;12616;52.470;13.436;2023-05-07T13:58:15;15.40;99.90
24436;DHT22;12616;52.470;13.436;2023-05-07T14:00:43;15.80;99.90
24436;DHT22;12616;52.470;13.436;2023-05-07T14:03:10;15.80;99.90
24436;DHT22;12616;52.470;13.436;2023-05-07T14:08:05;16.10;99.90
24436;DHT22;12616;52.470;13.436;2023-05-07T14:10:33;16.50;1.00
24436;DHT22;12616;52.470;13.436;2023-05-07T14:13:00;16.30;99.90
24436;DHT22;12616;52.470;13.436;2023-05-07T14:15:27;16.20;1.00
24436;DHT22;12616;52.470;13.436;2023-05-07T14:17:55;16.40;99.90
24436;DHT22;12616;52.470;13.436;2023-05-07T14:20:24;16.50;99.90
24436;DHT22;12616;52.470;13.436;2023-05-07T14:22:51;16.50;99.90
24436;DHT22;12616;52.470;13.436;2023-05-07T14:25:18;16.20;99.90
24436;DHT22;12616;52.470;13.436;2023-05-07T14:30:13;16.00;99.90
24436;DHT22;12616;52.470;13.436;2023-05-07T14:32:40;16.00;99.90
24436;DHT22;12616;52.470;13.436;2023-05-07T14:35:08;16.30;99.90
24436;DHT22;12616;52.470;13.436;2023-05-07T14:37:35;16.60;99.90
24436;DHT22;12616;52.470;13.436;2023-05-07T14:40:03;16.50;99.90
24436;DHT22;12616;52.470;13.436;2023-05-07T14:42:30;16.70;99.90
24436;DHT22;12616;52.470;13.436;2023-05-07T14:44:56;16.60;99.90
24436;DHT22;12616;52.470;13.436;2023-05-07T14:52:20;17.00;99.90
24436;DHT22;12616;52.470;13.436;2023-05-07T14:54:47;16.80;99.90
24436;DHT22;12616;52.470;13.436;2023-05-07T14:57:14;16.60;99.90
24436;DHT22;12616;52.470;13.436;2023-05-07T14:59:41;16.20;99.90
24436;DHT22;12616;52.470;13.436;2023-05-07T15:02:12;16.30;99.90
24436;DHT22;12616;52.470;13.436;2023-05-07T15:04:39;16.20;99.90
24436;DHT22;12616;52.470;13.436;2023-05-07T15:07:12;16.20;99.90
24436;DHT22;12616;52.470;13.436;2023-05-07T15:09:42;16.30;99.90
24436;DHT22;12616;52.470;13.436;2023-05-07T15:12:09;16.20;99.90
24436;DHT22;12616;52.470;13.436;2023-05-07T15:14:36;16.30;99.90
24436;DHT22;12616;52.470;13.436;2023-05-07T15:17:04;16.20;99.90
24436;DHT22;12616;52.470;13.436;2023-05-07T15:19:30;16.20;99.90
24436;DHT22;12616;52.470;13.436;2023-05-07T15:21:58;16.20;99.90
24436;DHT22;12616;52.470;13.436;2023-05-07T15:24:28;16.20;99.90
24436;DHT22;12616;52.470;13.436;2023-05-07T15:26:56;16.20;99.90
24436;DHT22;12616;52.470;13.436;2023-05-07T15:29:24;16.00;99.90
24436;DHT22;12616;52.470;13.436;2023-05-07T15:31:51;16.20;1.00
24436;DHT22;12616;52.470;13.436;2023-05-07T15:34:20;16.20;99.90
24436;DHT22;12616;52.470;13.436;2023-05-07T15:36:46;16.20;99.90
24436;DHT22;12616;52.470;13.436;2023-05-07T15:39:13;16.20;99.90
24436;DHT22;12616;52.470;13.436;2023-05-07T15:41:43;16.40;1.00
24436;DHT22;12616;52.470;13.436;2023-05-07T15:44:11;16.50;99.90
24436;DHT22;12616;52.470;13.436;2023-05-07T15:46:38;16.30;99.90
24436;DHT22;12616;52.470;13.436;2023-05-07T15:49:05;16.30;99.90
24436;DHT22;12616;52.470;13.436;2023-05-07T15:51:34;16.10;99.90
24436;DHT22;12616;52.470;13.436;2023-05-07T15:54:02;16.10;99.90
24436;DHT22;12616;52.470;13.436;2023-05-07T15:56:29;16.30;99.90
24436;DHT22;12616;52.470;13.436;2023-05-07T15:58:58;15.50;1.00
24436;DHT22;12616;52.470;13.436;2023-05-07T16:01:27;15.90;99.90
24436;DHT22;12616;52.470;13.436;2023-05-07T16:06:21;15.80;99.90
24436;DHT22;12616;52.470;13.436;2023-05-07T16:08:48;15.70;99.90
24436;DHT22;12616;52.470;13.436;2023-05-07T16:11:15;15.70;99.90
24436;DHT22;12616;52.470;13.436;2023-05-07T16:13:41;15.50;1.00
24436;DHT22;12616;52.470;13.436;2023-05-07T16:16:10;15.90;99.90
24436;DHT22;12616;52.470;13.436;2023-05-07T16:18:39;15.90;99.90
24436;DHT22;12616;52.470;13.436;2023-05-07T16:21:06;15.80;99.90
24436;DHT22;12616;52.470;13.436;2023-05-07T16:23:33;15.30;1.00
24436;DHT22;12616;52.470;13.436;2023-05-07T16:26:00;15.30;99.90
24436;DHT22;12616;52.470;13.436;2023-05-07T16:28:26;15.30;99.90
24436;DHT22;12616;52.470;13.436;2023-05-07T16:30:53;15.30;99.90
24436;DHT22;12616;52.470;13.436;2023-05-07T16:33:20;15.30;99.90
24436;DHT22;12616;52.470;13.436;2023-05-07T16:35:52;15.10;1.00
24436;DHT22;12616;52.470;13.436;2023-05-07T16:38:19;15.40;99.90
24436;DHT22;12616;52.470;13.436;2023-05-07T16:40:45;15.50;99.90
24436;DHT22;12616;52.470;13.436;2023-05-07T16:43:12;15.60;99.90
24436;DHT22;12616;52.470;13.436;2023-05-07T16:45:39;15.50;99.90
24436;DHT22;12616;52.470;13.436;2023-05-07T16:48:06;15.20;99.90
24436;DHT22;12616;52.470;13.436;2023-05-07T16:50:33;14.60;99.90
24436;DHT22;12616;52.470;13.436;2023-05-07T16:53:01;14.70;99.90
24436;DHT22;12616;52.470;13.436;2023-05-07T16:55:28;14.60;99.90
24436;DHT22;12616;52.470;13.436;2023-05-07T16:57:59;14.70;99.90
24436;DHT22;12616;52.470;13.436;2023-05-07T17:00:26;14.60;1.00
24436;DHT22;12616;52.470;13.436;2023-05-07T17:02:53;14.60;99.90